sensor_id;sensor_type;location;lat;lon;timestamp;P1;durP1;ratioP1;P2;durP2;ratioP2
71606;SDS011;60641;53.556;9.914;2023-11-22T00:01:17;5.40;;;1.90;;
71606;SDS011;60641;53.556;9.914;2023-11-22T00:03:45;6.20;;;1.60;;
71606;SDS011;60641;53.556;9.914;2023-11-22T00:06:11;7.40;;;2.50;;
71606;SDS011;60641;53.556;9.914;2023-11-22T00:08:38;6.30;;;2.10;;
71606;SDS011;60641;53.556;9.914;2023-11-22T00:11:04;7.10;;;2.00;;
71606;SDS011;60641;53.556;9.914;2023-11-22T00:13:31;6.10;;;2.10;;
71606;SDS011;60641;53.556;9.914;2023-11-22T00:15:58;6.20;;;1.90;;
71606;SDS011;60641;53.556;9.914;2023-11-22T00:18:25;7.10;;;1.90;;
71606;SDS011;60641;53.556;9.914;2023-11-22T00:20:52;7.30;;;1.90;;
71606;SDS011;60641;53.556;9.914;2023-11-22T00:23:18;6.70;;;2.10;;
71606;SDS011;60641;53.556;9.914;2023-11-22T00:25:45;7.70;;;2.10;;
71606;SDS011;60641;53.556;9.914;2023-11-22T00:28:11;5.70;;;2.00;;
71606;SDS011;60641;53.556;9.914;2023-11-22T00:30:38;6.40;;;2.20;;
71606;SDS011;60641;53.556;9.914;2023-11-22T00:33:04;6.40;;;2.00;;
71606;SDS011;60641;53.556;9.914;2023-11-22T00:35:31;6.10;;;1.70;;
71606;SDS011;60641;53.556;9.914;2023-11-22T00:37:58;5.80;;;1.90;;
71606;SDS011;60641;53.556;9.914;2023-11-22T00:40:24;8.40;;;2.20;;
71606;SDS011;60641;53.556;9.914;2023-11-22T00:42:51;6.90;;;2.00;;
71606;SDS011;60641;53.556;9.914;2023-11-22T00:45:17;6.30;;;2.00;;
71606;SDS011;60641;53.556;9.914;2023-11-22T00:47:44;5.90;;;1.90;;
71606;SDS011;60641;53.556;9.914;2023-11-22T00:50:11;6.00;;;1.80;;
71606;SDS011;60641;53.556;9.914;2023-11-22T00:52:37;6.40;;;2.20;;
71606;SDS011;60641;53.556;9.914;2023-11-22T00:55:06;6.60;;;1.90;;
71606;SDS011;60641;53.556;9.914;2023-11-22T00:57:32;6.30;;;2.10;;
71606;SDS011;60641;53.556;9.914;2023-11-22T00:59:59;6.60;;;2.10;;
71606;SDS011;60641;53.556;9.914;2023-11-22T01:02:25;7.60;;;2.30;;
71606;SDS011;60641;53.556;9.914;2023-11-22T01:04:52;9.30;;;2.00;;
71606;SDS011;60641;53.556;9.914;2023-11-22T01:07:19;6.60;;;2.30;;
71606;SDS011;60641;53.556;9.914;2023-11-22T01:09:45;8.50;;;2.50;;
71606;SDS011;60641;53.556;9.914;2023-11-22T01:12:12;6.80;;;2.10;;
71606;SDS011;60641;53.556;9.914;2023-11-22T01:14:39;7.10;;;2.30;;
71606;SDS011;60641;53.556;9.914;2023-11-22T01:17:05;5.80;;;1.90;;
71606;SDS011;60641;53.556;9.914;2023-11-22T01:19:32;7.00;;;2.10;;
71606;SDS011;60641;53.556;9.914;2023-11-22T01:21:58;5.80;;;1.80;;
71606;SDS011;60641;53.556;9.914;2023-11-22T01:24:24;6.00;;;1.90;;
71606;SDS011;60641;53.556;9.914;2023-11-22T01:26:52;5.50;;;1.70;;
71606;SDS011;60641;53.556;9.914;2023-11-22T01:29:18;5.60;;;1.90;;
71606;SDS011;60641;53.556;9.914;2023-11-22T01:31:45;5.70;;;1.70;;
71606;SDS011;60641;53.556;9.914;2023-11-22T01:34:11;6.30;;;2.00;;
71606;SDS011;60641;53.556;9.914;2023-11-22T01:36:41;6.60;;;2.20;;
71606;SDS011;60641;53.556;9.914;2023-11-22T01:39:10;6.70;;;2.00;;
71606;SDS011;60641;53.556;9.914;2023-11-22T01:41:38;7.00;;;2.30;;
71606;SDS011;60641;53.556;9.914;2023-11-22T01:44:05;7.80;;;2.20;;
71606;SDS011;60641;53.556;9.914;2023-11-22T01:46:31;7.90;;;2.10;;
71606;SDS011;60641;53.556;9.914;2023-11-22T01:48:59;7.20;;;2.20;;
71606;SDS011;60641;53.556;9.914;2023-11-22T01:51:25;7.40;;;2.20;;
71606;SDS011;60641;53.556;9.914;2023-11-22T01:53:53;6.60;;;2.00;;
71606;SDS011;60641;53.556;9.914;2023-11-22T01:56:23;7.10;;;2.10;;
71606;SDS011;60641;53.556;9.914;2023-11-22T01:58:52;6.70;;;1.90;;
71606;SDS011;60641;53.556;9.914;2023-11-22T02:01:20;7.40;;;2.00;;
71606;SDS011;60641;53.556;9.914;2023-11-22T02:03:47;6.50;;;2.00;;
71606;SDS011;60641;53.556;9.914;2023-11-22T02:06:15;7.10;;;1.90;;
71606;SDS011;60641;53.556;9.914;2023-11-22T02:08:42;8.10;;;1.90;;
71606;SDS011;60641;53.556;9.914;2023-11-22T02:11:10;6.90;;;1.90;;
71606;SDS011;60641;53.556;9.914;2023-11-22T02:13:36;6.90;;;1.90;;
71606;SDS011;60641;53.556;9.914;2023-11-22T02:16:03;6.90;;;2.30;;
71606;SDS011;60641;53.556;9.914;2023-11-22T02:18:30;5.70;;;1.90;;
71606;SDS011;60641;53.556;9.914;2023-11-22T02:20:56;7.00;;;1.80;;
71606;SDS011;60641;53.556;9.914;2023-11-22T02:23:23;6.20;;;2.10;;
71606;SDS011;60641;53.556;9.914;2023-11-22T02:25:50;6.70;;;1.90;;
71606;SDS011;60641;53.556;9.914;2023-11-22T02:28:16;6.20;;;1.80;;
71606;SDS011;60641;53.556;9.914;2023-11-22T02:30:43;7.50;;;2.10;;
71606;SDS011;60641;53.556;9.914;2023-11-22T02:33:09;7.30;;;2.00;;
71606;SDS011;60641;53.556;9.914;2023-11-22T02:35:35;7.50;;;2.10;;
71606;SDS011;60641;53.556;9.914;2023-11-22T02:38:02;6.50;;;1.70;;
71606;SDS011;60641;53.556;9.914;2023-11-22T02:40:28;6.20;;;1.80;;
71606;SDS011;60641;53.556;9.914;2023-11-22T02:42:55;6.90;;;1.70;;
71606;SDS011;60641;53.556;9.914;2023-11-22T02:45:27;6.50;;;1.80;;
71606;SDS011;60641;53.556;9.914;2023-11-22T02:47:55;6.20;;;1.70;;
71606;SDS011;60641;53.556;9.914;2023-11-22T02:50:22;6.70;;;1.80;;
71606;SDS011;60641;53.556;9.914;2023-11-22T02:52:49;5.80;;;1.90;;
71606;SDS011;60641;53.556;9.914;2023-11-22T02:55:16;7.80;;;1.60;;
71606;SDS011;60641;53.556;9.914;2023-11-22T02:57:42;6.60;;;2.10;;
71606;SDS011;60641;53.556;9.914;2023-11-22T03:00:09;6.40;;;1.90;;
71606;SDS011;60641;53.556;9.914;2023-11-22T03:02:42;6.10;;;2.30;;
71606;SDS011;60641;53.556;9.914;2023-11-22T03:05:08;7.30;;;2.10;;
71606;SDS011;60641;53.556;9.914;2023-11-22T03:07:38;8.40;;;2.10;;
71606;SDS011;60641;53.556;9.914;2023-11-22T03:10:05;6.80;;;1.80;;
71606;SDS011;60641;53.556;9.914;2023-11-22T03:12:34;6.50;;;2.20;;
71606;SDS011;60641;53.556;9.914;2023-11-22T03:15:00;7.40;;;2.20;;
71606;SDS011;60641;53.556;9.914;2023-11-22T03:17:28;5.90;;;2.20;;
71606;SDS011;60641;53.556;9.914;2023-11-22T03:19:55;6.70;;;2.20;;
71606;SDS011;60641;53.556;9.914;2023-11-22T03:22:23;7.60;;;2.30;;
71606;SDS011;60641;53.556;9.914;2023-11-22T03:24:50;7.50;;;2.30;;
71606;SDS011;60641;53.556;9.914;2023-11-22T03:27:17;6.20;;;2.20;;
71606;SDS011;60641;53.556;9.914;2023-11-22T03:29:43;7.40;;;2.50;;
71606;SDS011;60641;53.556;9.914;2023-11-22T03:32:10;8.40;;;2.00;;
71606;SDS011;60641;53.556;9.914;2023-11-22T03:34:37;6.60;;;2.10;;
71606;SDS011;60641;53.556;9.914;2023-11-22T03:37:04;5.80;;;2.20;;
71606;SDS011;60641;53.556;9.914;2023-11-22T03:39:30;6.30;;;2.00;;
71606;SDS011;60641;53.556;9.914;2023-11-22T03:41:57;6.00;;;2.00;;
71606;SDS011;60641;53.556;9.914;2023-11-22T03:44:23;6.60;;;1.80;;
71606;SDS011;60641;53.556;9.914;2023-11-22T03:46:49;6.70;;;2.30;;
71606;SDS011;60641;53.556;9.914;2023-11-22T03:49:16;7.00;;;2.20;;
71606;SDS011;60641;53.556;9.914;2023-11-22T03:51:44;6.90;;;2.30;;
71606;SDS011;60641;53.556;9.914;2023-11-22T03:54:10;7.20;;;2.50;;
71606;SDS011;60641;53.556;9.914;2023-11-22T03:56:38;7.00;;;2.20;;
71606;SDS011;60641;53.556;9.914;2023-11-22T03:59:05;8.40;;;2.60;;
71606;SDS011;60641;53.556;9.914;2023-11-22T04:01:32;7.30;;;2.40;;
71606;SDS011;60641;53.556;9.914;2023-11-22T04:03:58;6.60;;;2.10;;
71606;SDS011;60641;53.556;9.914;2023-11-22T04:06:24;7.20;;;2.30;;
71606;SDS011;60641;53.556;9.914;2023-11-22T04:08:51;6.90;;;2.10;;
71606;SDS011;60641;53.556;9.914;2023-11-22T04:11:19;7.70;;;2.30;;
71606;SDS011;60641;53.556;9.914;2023-11-22T04:13:45;6.70;;;2.10;;
71606;SDS011;60641;53.556;9.914;2023-11-22T04:16:12;6.00;;;1.70;;
71606;SDS011;60641;53.556;9.914;2023-11-22T04:18:39;5.60;;;2.00;;
71606;SDS011;60641;53.556;9.914;2023-11-22T04:21:07;9.20;;;2.30;;
71606;SDS011;60641;53.556;9.914;2023-11-22T04:23:34;5.90;;;2.20;;
71606;SDS011;60641;53.556;9.914;2023-11-22T04:26:01;7.40;;;2.20;;
71606;SDS011;60641;53.556;9.914;2023-11-22T04:28:27;6.40;;;2.10;;
71606;SDS011;60641;53.556;9.914;2023-11-22T04:30:56;9.50;;;2.20;;
71606;SDS011;60641;53.556;9.914;2023-11-22T04:33:23;6.20;;;2.10;;
71606;SDS011;60641;53.556;9.914;2023-11-22T04:35:50;5.80;;;1.90;;
71606;SDS011;60641;53.556;9.914;2023-11-22T04:38:17;7.20;;;2.20;;
71606;SDS011;60641;53.556;9.914;2023-11-22T04:40:44;6.30;;;2.20;;
71606;SDS011;60641;53.556;9.914;2023-11-22T04:43:10;7.20;;;2.00;;
71606;SDS011;60641;53.556;9.914;2023-11-22T04:45:37;7.80;;;2.40;;
71606;SDS011;60641;53.556;9.914;2023-11-22T04:48:04;7.20;;;2.00;;
71606;SDS011;60641;53.556;9.914;2023-11-22T04:50:32;9.00;;;2.40;;
71606;SDS011;60641;53.556;9.914;2023-11-22T04:52:59;6.60;;;2.20;;
71606;SDS011;60641;53.556;9.914;2023-11-22T04:55:27;7.00;;;2.20;;
71606;SDS011;60641;53.556;9.914;2023-11-22T04:57:54;7.40;;;2.70;;
71606;SDS011;60641;53.556;9.914;2023-11-22T05:00:21;6.40;;;2.00;;
71606;SDS011;60641;53.556;9.914;2023-11-22T05:02:50;6.30;;;2.30;;
71606;SDS011;60641;53.556;9.914;2023-11-22T05:05:17;7.00;;;2.00;;
71606;SDS011;60641;53.556;9.914;2023-11-22T05:07:44;8.40;;;2.40;;
71606;SDS011;60641;53.556;9.914;2023-11-22T05:10:13;6.20;;;2.20;;
71606;SDS011;60641;53.556;9.914;2023-11-22T05:12:40;6.80;;;2.20;;
71606;SDS011;60641;53.556;9.914;2023-11-22T05:15:06;7.70;;;2.50;;
71606;SDS011;60641;53.556;9.914;2023-11-22T05:17:34;6.40;;;2.20;;
71606;SDS011;60641;53.556;9.914;2023-11-22T05:20:01;7.70;;;2.30;;
71606;SDS011;60641;53.556;9.914;2023-11-22T05:22:29;5.20;;;2.00;;
71606;SDS011;60641;53.556;9.914;2023-11-22T05:24:55;7.10;;;2.30;;
71606;SDS011;60641;53.556;9.914;2023-11-22T05:27:22;11.20;;;2.50;;
71606;SDS011;60641;53.556;9.914;2023-11-22T05:29:48;6.00;;;2.20;;
71606;SDS011;60641;53.556;9.914;2023-11-22T05:32:15;7.00;;;2.40;;
71606;SDS011;60641;53.556;9.914;2023-11-22T05:34:43;7.30;;;2.60;;
71606;SDS011;60641;53.556;9.914;2023-11-22T05:37:09;6.60;;;2.30;;
71606;SDS011;60641;53.556;9.914;2023-11-22T05:39:36;6.40;;;2.00;;
71606;SDS011;60641;53.556;9.914;2023-11-22T05:42:03;7.10;;;2.30;;
71606;SDS011;60641;53.556;9.914;2023-11-22T05:44:29;6.60;;;2.30;;
71606;SDS011;60641;53.556;9.914;2023-11-22T05:46:56;7.70;;;2.50;;
71606;SDS011;60641;53.556;9.914;2023-11-22T05:49:23;6.90;;;1.90;;
71606;SDS011;60641;53.556;9.914;2023-11-22T05:51:49;6.80;;;2.40;;
71606;SDS011;60641;53.556;9.914;2023-11-22T05:54:16;8.90;;;2.30;;
71606;SDS011;60641;53.556;9.914;2023-11-22T05:56:42;6.30;;;2.40;;
71606;SDS011;60641;53.556;9.914;2023-11-22T05:59:09;8.50;;;2.60;;
71606;SDS011;60641;53.556;9.914;2023-11-22T06:01:35;8.00;;;2.50;;
71606;SDS011;60641;53.556;9.914;2023-11-22T06:04:03;7.20;;;2.50;;
71606;SDS011;60641;53.556;9.914;2023-11-22T06:06:30;7.70;;;2.90;;
71606;SDS011;60641;53.556;9.914;2023-11-22T06:08:56;6.30;;;2.20;;
71606;SDS011;60641;53.556;9.914;2023-11-22T06:11:23;7.90;;;2.50;;
71606;SDS011;60641;53.556;9.914;2023-11-22T06:13:51;7.90;;;2.90;;
71606;SDS011;60641;53.556;9.914;2023-11-22T06:16:20;8.50;;;2.90;;
71606;SDS011;60641;53.556;9.914;2023-11-22T06:18:46;9.40;;;3.00;;
71606;SDS011;60641;53.556;9.914;2023-11-22T06:21:13;8.90;;;3.20;;
71606;SDS011;60641;53.556;9.914;2023-11-22T06:23:40;8.40;;;2.90;;
71606;SDS011;60641;53.556;9.914;2023-11-22T06:26:07;9.00;;;2.80;;
71606;SDS011;60641;53.556;9.914;2023-11-22T06:28:33;9.60;;;2.90;;
71606;SDS011;60641;53.556;9.914;2023-11-22T06:31:01;7.30;;;2.90;;
71606;SDS011;60641;53.556;9.914;2023-11-22T06:33:27;8.20;;;3.00;;
71606;SDS011;60641;53.556;9.914;2023-11-22T06:35:54;7.00;;;2.60;;
71606;SDS011;60641;53.556;9.914;2023-11-22T06:38:20;9.40;;;2.90;;
71606;SDS011;60641;53.556;9.914;2023-11-22T06:40:47;8.40;;;2.80;;
71606;SDS011;60641;53.556;9.914;2023-11-22T06:43:13;7.80;;;2.90;;
71606;SDS011;60641;53.556;9.914;2023-11-22T06:45:40;8.80;;;3.10;;
71606;SDS011;60641;53.556;9.914;2023-11-22T06:48:07;8.90;;;2.90;;
71606;SDS011;60641;53.556;9.914;2023-11-22T06:50:34;9.10;;;3.00;;
71606;SDS011;60641;53.556;9.914;2023-11-22T06:53:01;9.10;;;3.00;;
71606;SDS011;60641;53.556;9.914;2023-11-22T06:55:29;8.80;;;3.30;;
71606;SDS011;60641;53.556;9.914;2023-11-22T06:57:57;8.80;;;3.30;;
71606;SDS011;60641;53.556;9.914;2023-11-22T07:00:23;9.90;;;3.20;;
71606;SDS011;60641;53.556;9.914;2023-11-22T07:02:49;8.20;;;3.10;;
71606;SDS011;60641;53.556;9.914;2023-11-22T07:05:16;9.70;;;3.20;;
71606;SDS011;60641;53.556;9.914;2023-11-22T07:07:42;9.00;;;3.40;;
71606;SDS011;60641;53.556;9.914;2023-11-22T07:10:09;9.20;;;3.20;;
71606;SDS011;60641;53.556;9.914;2023-11-22T07:12:37;10.90;;;3.40;;
71606;SDS011;60641;53.556;9.914;2023-11-22T07:15:06;9.40;;;3.70;;
71606;SDS011;60641;53.556;9.914;2023-11-22T07:17:32;10.30;;;3.70;;
71606;SDS011;60641;53.556;9.914;2023-11-22T07:20:00;9.90;;;3.60;;
71606;SDS011;60641;53.556;9.914;2023-11-22T07:22:27;14.50;;;4.10;;
71606;SDS011;60641;53.556;9.914;2023-11-22T07:24:54;10.80;;;3.60;;
71606;SDS011;60641;53.556;9.914;2023-11-22T07:27:21;9.20;;;3.80;;
71606;SDS011;60641;53.556;9.914;2023-11-22T07:29:48;10.40;;;3.90;;
71606;SDS011;60641;53.556;9.914;2023-11-22T07:32:18;10.60;;;3.80;;
71606;SDS011;60641;53.556;9.914;2023-11-22T07:34:46;13.70;;;3.90;;
71606;SDS011;60641;53.556;9.914;2023-11-22T07:37:13;9.20;;;3.60;;
71606;SDS011;60641;53.556;9.914;2023-11-22T07:39:41;9.60;;;3.00;;
71606;SDS011;60641;53.556;9.914;2023-11-22T07:42:09;9.00;;;3.00;;
71606;SDS011;60641;53.556;9.914;2023-11-22T07:44:35;9.70;;;3.40;;
71606;SDS011;60641;53.556;9.914;2023-11-22T07:47:04;10.90;;;3.70;;
71606;SDS011;60641;53.556;9.914;2023-11-22T07:49:40;8.70;;;3.30;;
71606;SDS011;60641;53.556;9.914;2023-11-22T07:52:08;10.80;;;3.30;;
71606;SDS011;60641;53.556;9.914;2023-11-22T07:54:39;8.60;;;3.60;;
71606;SDS011;60641;53.556;9.914;2023-11-22T07:57:06;9.90;;;3.50;;
71606;SDS011;60641;53.556;9.914;2023-11-22T07:59:35;10.60;;;3.80;;
71606;SDS011;60641;53.556;9.914;2023-11-22T08:02:03;10.20;;;3.50;;
71606;SDS011;60641;53.556;9.914;2023-11-22T08:04:33;11.00;;;3.80;;
71606;SDS011;60641;53.556;9.914;2023-11-22T08:07:00;12.90;;;3.30;;
71606;SDS011;60641;53.556;9.914;2023-11-22T08:09:28;9.60;;;3.60;;
71606;SDS011;60641;53.556;9.914;2023-11-22T08:11:58;9.20;;;3.90;;
71606;SDS011;60641;53.556;9.914;2023-11-22T08:14:29;9.80;;;3.10;;
71606;SDS011;60641;53.556;9.914;2023-11-22T08:16:56;9.10;;;3.20;;
71606;SDS011;60641;53.556;9.914;2023-11-22T08:19:23;9.20;;;3.80;;
71606;SDS011;60641;53.556;9.914;2023-11-22T08:21:54;11.30;;;3.40;;
71606;SDS011;60641;53.556;9.914;2023-11-22T08:24:24;12.50;;;3.40;;
71606;SDS011;60641;53.556;9.914;2023-11-22T08:26:51;9.40;;;3.20;;
71606;SDS011;60641;53.556;9.914;2023-11-22T08:29:17;12.00;;;3.40;;
71606;SDS011;60641;53.556;9.914;2023-11-22T08:31:45;11.90;;;3.80;;
71606;SDS011;60641;53.556;9.914;2023-11-22T08:34:12;9.50;;;3.20;;
71606;SDS011;60641;53.556;9.914;2023-11-22T08:36:38;8.90;;;3.10;;
71606;SDS011;60641;53.556;9.914;2023-11-22T08:39:07;9.20;;;3.10;;
71606;SDS011;60641;53.556;9.914;2023-11-22T08:41:34;10.30;;;3.50;;
71606;SDS011;60641;53.556;9.914;2023-11-22T08:44:01;9.90;;;3.50;;
71606;SDS011;60641;53.556;9.914;2023-11-22T08:46:27;8.70;;;3.50;;
71606;SDS011;60641;53.556;9.914;2023-11-22T08:48:54;10.40;;;4.20;;
71606;SDS011;60641;53.556;9.914;2023-11-22T08:51:22;13.40;;;3.90;;
71606;SDS011;60641;53.556;9.914;2023-11-22T08:53:49;10.00;;;4.30;;
71606;SDS011;60641;53.556;9.914;2023-11-22T08:56:15;10.90;;;4.40;;
71606;SDS011;60641;53.556;9.914;2023-11-22T08:58:42;11.00;;;4.60;;
71606;SDS011;60641;53.556;9.914;2023-11-22T09:01:09;14.70;;;4.40;;
71606;SDS011;60641;53.556;9.914;2023-11-22T09:03:36;10.30;;;4.30;;
71606;SDS011;60641;53.556;9.914;2023-11-22T09:06:04;11.00;;;4.70;;
71606;SDS011;60641;53.556;9.914;2023-11-22T09:08:33;14.20;;;4.50;;
71606;SDS011;60641;53.556;9.914;2023-11-22T09:10:59;10.30;;;4.20;;
71606;SDS011;60641;53.556;9.914;2023-11-22T09:13:26;13.00;;;4.10;;
71606;SDS011;60641;53.556;9.914;2023-11-22T09:15:52;9.90;;;4.20;;
71606;SDS011;60641;53.556;9.914;2023-11-22T09:18:19;11.30;;;4.10;;
71606;SDS011;60641;53.556;9.914;2023-11-22T09:20:45;10.90;;;4.50;;
71606;SDS011;60641;53.556;9.914;2023-11-22T09:23:12;10.00;;;3.80;;
71606;SDS011;60641;53.556;9.914;2023-11-22T09:25:40;11.00;;;3.70;;
71606;SDS011;60641;53.556;9.914;2023-11-22T09:28:06;10.40;;;3.60;;
71606;SDS011;60641;53.556;9.914;2023-11-22T09:30:35;9.00;;;3.10;;
71606;SDS011;60641;53.556;9.914;2023-11-22T09:33:02;9.20;;;3.00;;
71606;SDS011;60641;53.556;9.914;2023-11-22T09:35:30;8.80;;;3.00;;
71606;SDS011;60641;53.556;9.914;2023-11-22T09:38:01;8.30;;;3.10;;
71606;SDS011;60641;53.556;9.914;2023-11-22T09:40:28;7.00;;;2.90;;
71606;SDS011;60641;53.556;9.914;2023-11-22T09:42:58;8.50;;;2.80;;
71606;SDS011;60641;53.556;9.914;2023-11-22T09:45:26;10.10;;;2.90;;
71606;SDS011;60641;53.556;9.914;2023-11-22T09:47:53;8.40;;;3.10;;
71606;SDS011;60641;53.556;9.914;2023-11-22T09:50:20;7.50;;;2.80;;
71606;SDS011;60641;53.556;9.914;2023-11-22T09:52:55;7.20;;;2.60;;
71606;SDS011;60641;53.556;9.914;2023-11-22T09:55:27;11.00;;;4.50;;
71606;SDS011;60641;53.556;9.914;2023-11-22T09:57:55;8.60;;;3.20;;
71606;SDS011;60641;53.556;9.914;2023-11-22T10:00:23;10.00;;;3.50;;
71606;SDS011;60641;53.556;9.914;2023-11-22T10:02:53;9.70;;;3.70;;
71606;SDS011;60641;53.556;9.914;2023-11-22T10:05:20;8.50;;;3.40;;
71606;SDS011;60641;53.556;9.914;2023-11-22T10:07:46;8.80;;;3.30;;
71606;SDS011;60641;53.556;9.914;2023-11-22T10:10:14;9.00;;;3.80;;
71606;SDS011;60641;53.556;9.914;2023-11-22T10:12:44;17.10;;;3.70;;
71606;SDS011;60641;53.556;9.914;2023-11-22T10:15:12;9.70;;;3.40;;
71606;SDS011;60641;53.556;9.914;2023-11-22T10:17:40;9.10;;;3.20;;
71606;SDS011;60641;53.556;9.914;2023-11-22T10:20:07;9.60;;;3.80;;
71606;SDS011;60641;53.556;9.914;2023-11-22T10:22:43;10.00;;;3.40;;
71606;SDS011;60641;53.556;9.914;2023-11-22T10:25:14;12.40;;;3.40;;
71606;SDS011;60641;53.556;9.914;2023-11-22T10:27:50;9.50;;;3.50;;
71606;SDS011;60641;53.556;9.914;2023-11-22T10:30:19;7.80;;;3.10;;
71606;SDS011;60641;53.556;9.914;2023-11-22T10:32:45;9.80;;;3.40;;
71606;SDS011;60641;53.556;9.914;2023-11-22T10:35:12;8.80;;;3.60;;
71606;SDS011;60641;53.556;9.914;2023-11-22T10:37:41;8.70;;;3.70;;
71606;SDS011;60641;53.556;9.914;2023-11-22T10:40:11;10.40;;;4.20;;
71606;SDS011;60641;53.556;9.914;2023-11-22T10:42:42;11.00;;;4.50;;
71606;SDS011;60641;53.556;9.914;2023-11-22T10:45:12;10.10;;;4.60;;
71606;SDS011;60641;53.556;9.914;2023-11-22T10:47:39;9.50;;;4.50;;
71606;SDS011;60641;53.556;9.914;2023-11-22T10:50:08;12.10;;;5.10;;
71606;SDS011;60641;53.556;9.914;2023-11-22T10:52:37;12.10;;;5.70;;
71606;SDS011;60641;53.556;9.914;2023-11-22T10:55:07;11.60;;;5.10;;
71606;SDS011;60641;53.556;9.914;2023-11-22T10:57:44;10.60;;;4.50;;
71606;SDS011;60641;53.556;9.914;2023-11-22T11:00:14;12.30;;;3.40;;
71606;SDS011;60641;53.556;9.914;2023-11-22T11:02:44;7.60;;;3.10;;
71606;SDS011;60641;53.556;9.914;2023-11-22T11:05:15;9.00;;;3.30;;
71606;SDS011;60641;53.556;9.914;2023-11-22T11:07:48;9.00;;;3.20;;
71606;SDS011;60641;53.556;9.914;2023-11-22T11:10:20;9.50;;;3.10;;
71606;SDS011;60641;53.556;9.914;2023-11-22T11:12:50;9.50;;;3.90;;
71606;SDS011;60641;53.556;9.914;2023-11-22T11:15:16;8.80;;;2.70;;
71606;SDS011;60641;53.556;9.914;2023-11-22T11:17:43;8.50;;;2.50;;
71606;SDS011;60641;53.556;9.914;2023-11-22T11:20:10;7.30;;;2.30;;
71606;SDS011;60641;53.556;9.914;2023-11-22T11:22:39;8.70;;;2.20;;
71606;SDS011;60641;53.556;9.914;2023-11-22T11:25:06;7.20;;;2.30;;
71606;SDS011;60641;53.556;9.914;2023-11-22T11:27:36;7.40;;;1.90;;
71606;SDS011;60641;53.556;9.914;2023-11-22T11:33:00;5.30;;;1.60;;
71606;SDS011;60641;53.556;9.914;2023-11-22T11:35:41;5.30;;;1.30;;
71606;SDS011;60641;53.556;9.914;2023-11-22T11:38:15;4.70;;;1.20;;
71606;SDS011;60641;53.556;9.914;2023-11-22T11:40:45;5.50;;;1.20;;
71606;SDS011;60641;53.556;9.914;2023-11-22T11:43:12;4.30;;;1.00;;
71606;SDS011;60641;53.556;9.914;2023-11-22T11:45:40;3.90;;;1.00;;
71606;SDS011;60641;53.556;9.914;2023-11-22T11:48:17;4.00;;;1.00;;
71606;SDS011;60641;53.556;9.914;2023-11-22T11:50:46;5.00;;;1.10;;
71606;SDS011;60641;53.556;9.914;2023-11-22T11:53:18;4.60;;;0.90;;
71606;SDS011;60641;53.556;9.914;2023-11-22T11:55:45;4.90;;;1.10;;
71606;SDS011;60641;53.556;9.914;2023-11-22T11:58:12;3.90;;;1.00;;
71606;SDS011;60641;53.556;9.914;2023-11-22T12:00:39;5.40;;;1.20;;
71606;SDS011;60641;53.556;9.914;2023-11-22T12:03:07;3.90;;;0.90;;
71606;SDS011;60641;53.556;9.914;2023-11-22T12:05:38;4.60;;;1.10;;
71606;SDS011;60641;53.556;9.914;2023-11-22T12:08:04;4.20;;;1.00;;
71606;SDS011;60641;53.556;9.914;2023-11-22T12:10:31;3.50;;;0.80;;
71606;SDS011;60641;53.556;9.914;2023-11-22T12:12:58;3.10;;;0.80;;
71606;SDS011;60641;53.556;9.914;2023-11-22T12:15:24;1.80;;;0.60;;
71606;SDS011;60641;53.556;9.914;2023-11-22T12:17:51;2.20;;;0.60;;
71606;SDS011;60641;53.556;9.914;2023-11-22T12:20:20;2.30;;;0.70;;
71606;SDS011;60641;53.556;9.914;2023-11-22T12:22:48;4.80;;;0.90;;
71606;SDS011;60641;53.556;9.914;2023-11-22T12:25:14;3.40;;;0.80;;
71606;SDS011;60641;53.556;9.914;2023-11-22T12:27:44;3.50;;;0.90;;
71606;SDS011;60641;53.556;9.914;2023-11-22T12:30:29;3.10;;;0.80;;
71606;SDS011;60641;53.556;9.914;2023-11-22T12:33:01;2.70;;;0.90;;
71606;SDS011;60641;53.556;9.914;2023-11-22T12:35:29;3.50;;;0.70;;
71606;SDS011;60641;53.556;9.914;2023-11-22T12:37:56;4.10;;;0.90;;
71606;SDS011;60641;53.556;9.914;2023-11-22T12:40:26;3.10;;;0.80;;
71606;SDS011;60641;53.556;9.914;2023-11-22T12:42:53;4.40;;;0.90;;
71606;SDS011;60641;53.556;9.914;2023-11-22T12:45:22;3.00;;;0.80;;
71606;SDS011;60641;53.556;9.914;2023-11-22T12:47:51;3.90;;;0.80;;
71606;SDS011;60641;53.556;9.914;2023-11-22T12:53:08;3.40;;;0.80;;
71606;SDS011;60641;53.556;9.914;2023-11-22T12:55:46;3.00;;;0.80;;
71606;SDS011;60641;53.556;9.914;2023-11-22T12:58:18;3.10;;;0.80;;
71606;SDS011;60641;53.556;9.914;2023-11-22T13:00:46;4.60;;;0.90;;
71606;SDS011;60641;53.556;9.914;2023-11-22T13:03:14;3.80;;;0.80;;
71606;SDS011;60641;53.556;9.914;2023-11-22T13:05:41;3.80;;;0.70;;
71606;SDS011;60641;53.556;9.914;2023-11-22T13:08:09;2.90;;;0.80;;
71606;SDS011;60641;53.556;9.914;2023-11-22T13:10:40;5.60;;;0.60;;
71606;SDS011;60641;53.556;9.914;2023-11-22T13:13:09;3.20;;;0.80;;
71606;SDS011;60641;53.556;9.914;2023-11-22T13:15:35;4.00;;;0.80;;
71606;SDS011;60641;53.556;9.914;2023-11-22T13:18:02;3.00;;;0.70;;
71606;SDS011;60641;53.556;9.914;2023-11-22T13:20:28;3.90;;;0.70;;
71606;SDS011;60641;53.556;9.914;2023-11-22T13:22:55;5.00;;;0.80;;
71606;SDS011;60641;53.556;9.914;2023-11-22T13:25:22;2.90;;;0.70;;
71606;SDS011;60641;53.556;9.914;2023-11-22T13:27:50;2.40;;;0.60;;
71606;SDS011;60641;53.556;9.914;2023-11-22T13:30:18;3.00;;;0.60;;
71606;SDS011;60641;53.556;9.914;2023-11-22T13:32:49;2.90;;;0.90;;
71606;SDS011;60641;53.556;9.914;2023-11-22T13:35:23;2.60;;;0.80;;
71606;SDS011;60641;53.556;9.914;2023-11-22T13:37:50;3.30;;;0.80;;
71606;SDS011;60641;53.556;9.914;2023-11-22T13:40:17;3.60;;;1.00;;
71606;SDS011;60641;53.556;9.914;2023-11-22T13:42:56;4.60;;;1.00;;
71606;SDS011;60641;53.556;9.914;2023-11-22T13:45:24;2.80;;;1.00;;
71606;SDS011;60641;53.556;9.914;2023-11-22T13:47:51;4.90;;;1.30;;
71606;SDS011;60641;53.556;9.914;2023-11-22T13:50:25;4.50;;;1.20;;
71606;SDS011;60641;53.556;9.914;2023-11-22T13:52:53;3.70;;;1.00;;
71606;SDS011;60641;53.556;9.914;2023-11-22T13:55:21;4.70;;;1.30;;
71606;SDS011;60641;53.556;9.914;2023-11-22T13:57:51;4.80;;;1.50;;
71606;SDS011;60641;53.556;9.914;2023-11-22T14:00:19;4.50;;;1.30;;
71606;SDS011;60641;53.556;9.914;2023-11-22T14:02:49;4.10;;;1.40;;
71606;SDS011;60641;53.556;9.914;2023-11-22T14:05:17;4.10;;;1.30;;
71606;SDS011;60641;53.556;9.914;2023-11-22T14:07:44;4.20;;;1.20;;
71606;SDS011;60641;53.556;9.914;2023-11-22T14:10:11;4.40;;;1.20;;
71606;SDS011;60641;53.556;9.914;2023-11-22T14:12:38;3.50;;;1.30;;
71606;SDS011;60641;53.556;9.914;2023-11-22T14:15:04;3.90;;;1.20;;
71606;SDS011;60641;53.556;9.914;2023-11-22T14:17:32;4.80;;;1.20;;
71606;SDS011;60641;53.556;9.914;2023-11-22T14:19:58;4.20;;;1.50;;
71606;SDS011;60641;53.556;9.914;2023-11-22T14:22:25;4.40;;;1.20;;
71606;SDS011;60641;53.556;9.914;2023-11-22T14:24:53;5.30;;;1.30;;
71606;SDS011;60641;53.556;9.914;2023-11-22T14:27:19;5.10;;;1.10;;
71606;SDS011;60641;53.556;9.914;2023-11-22T14:29:46;6.30;;;1.30;;
71606;SDS011;60641;53.556;9.914;2023-11-22T14:32:16;5.80;;;1.30;;
71606;SDS011;60641;53.556;9.914;2023-11-22T14:34:45;6.30;;;1.30;;
71606;SDS011;60641;53.556;9.914;2023-11-22T14:37:12;4.60;;;1.20;;
71606;SDS011;60641;53.556;9.914;2023-11-22T14:39:39;4.40;;;1.10;;
71606;SDS011;60641;53.556;9.914;2023-11-22T14:42:06;5.60;;;1.20;;
71606;SDS011;60641;53.556;9.914;2023-11-22T14:44:34;5.00;;;1.30;;
71606;SDS011;60641;53.556;9.914;2023-11-22T14:47:01;4.90;;;1.50;;
71606;SDS011;60641;53.556;9.914;2023-11-22T14:49:32;5.30;;;1.40;;
71606;SDS011;60641;53.556;9.914;2023-11-22T14:52:00;3.90;;;0.90;;
71606;SDS011;60641;53.556;9.914;2023-11-22T14:54:30;5.50;;;1.30;;